sensor_id;sensor_type;location;lat;lon;timestamp;P1;P2;P0
48893;PMS5003;34710;35.798;139.446;2022-07-17T00:00:03;1;1;
48893;PMS5003;34710;35.798;139.446;2022-07-17T00:02:32;6;3;
48893;PMS5003;34710;35.798;139.446;2022-07-17T00:05:02;1;0;
48893;PMS5003;34710;35.798;139.446;2022-07-17T00:07:31;2;1;
48893;PMS5003;34710;35.798;139.446;2022-07-17T00:10:00;2;1;
48893;PMS5003;34710;35.798;139.446;2022-07-17T00:12:30;1;1;
48893;PMS5003;34710;35.798;139.446;2022-07-17T00:15:00;2;1;
48893;PMS5003;34710;35.798;139.446;2022-07-17T00:17:29;1;1;
48893;PMS5003;34710;35.798;139.446;2022-07-17T00:19:59;2;1;
48893;PMS5003;34710;35.798;139.446;2022-07-17T00:22:28;1;1;
48893;PMS5003;34710;35.798;139.446;2022-07-17T00:24:57;3;2;
48893;PMS5003;34710;35.798;139.446;2022-07-17T00:27:27;2;2;
48893;PMS5003;34710;35.798;139.446;2022-07-17T00:29:56;0;0;
48893;PMS5003;34710;35.798;139.446;2022-07-17T00:32:25;2;0;
48893;PMS5003;34710;35.798;139.446;2022-07-17T00:34:54;2;1;
48893;PMS5003;34710;35.798;139.446;2022-07-17T00:37:24;1;1;
48893;PMS5003;34710;35.798;139.446;2022-07-17T00:39:53;1;1;
48893;PMS5003;34710;35.798;139.446;2022-07-17T00:42:22;0;0;
48893;PMS5003;34710;35.798;139.446;2022-07-17T00:44:52;0;0;
48893;PMS5003;34710;35.798;139.446;2022-07-17T00:47:21;0;0;
48893;PMS5003;34710;35.798;139.446;2022-07-17T00:49:51;0;0;
48893;PMS5003;34710;35.798;139.446;2022-07-17T00:52:20;0;0;
48893;PMS5003;34710;35.798;139.446;2022-07-17T00:54:49;1;1;
48893;PMS5003;34710;35.798;139.446;2022-07-17T00:57:19;0;0;
48893;PMS5003;34710;35.798;139.446;2022-07-17T00:59:49;0;0;
48893;PMS5003;34710;35.798;139.446;2022-07-17T01:02:19;2;1;
48893;PMS5003;34710;35.798;139.446;2022-07-17T01:04:49;0;0;
48893;PMS5003;34710;35.798;139.446;2022-07-17T01:07:18;0;0;
48893;PMS5003;34710;35.798;139.446;2022-07-17T01:09:48;0;0;
48893;PMS5003;34710;35.798;139.446;2022-07-17T01:12:17;2;1;
48893;PMS5003;34710;35.798;139.446;2022-07-17T01:14:46;0;0;
48893;PMS5003;34710;35.798;139.446;2022-07-17T01:17:15;1;1;
48893;PMS5003;34710;35.798;139.446;2022-07-17T01:19:46;1;1;
48893;PMS5003;34710;35.798;139.446;2022-07-17T01:22:16;1;1;
48893;PMS5003;34710;35.798;139.446;2022-07-17T01:24:45;0;0;
48893;PMS5003;34710;35.798;139.446;2022-07-17T01:27:15;0;0;
48893;PMS5003;34710;35.798;139.446;2022-07-17T01:29:44;1;1;
48893;PMS5003;34710;35.798;139.446;2022-07-17T01:32:14;0;0;
48893;PMS5003;34710;35.798;139.446;2022-07-17T01:34:43;1;1;
48893;PMS5003;34710;35.798;139.446;2022-07-17T01:37:12;1;1;
48893;PMS5003;34710;35.798;139.446;2022-07-17T01:39:41;3;2;
48893;PMS5003;34710;35.798;139.446;2022-07-17T01:42:11;0;0;
48893;PMS5003;34710;35.798;139.446;2022-07-17T01:44:40;1;1;
48893;PMS5003;34710;35.798;139.446;2022-07-17T01:47:09;0;0;
48893;PMS5003;34710;35.798;139.446;2022-07-17T01:49:43;1;1;
48893;PMS5003;34710;35.798;139.446;2022-07-17T01:52:13;2;1;
48893;PMS5003;34710;35.798;139.446;2022-07-17T01:54:43;1;1;
48893;PMS5003;34710;35.798;139.446;2022-07-17T01:57:13;1;1;
48893;PMS5003;34710;35.798;139.446;2022-07-17T01:59:43;1;1;
48893;PMS5003;34710;35.798;139.446;2022-07-17T02:02:13;2;2;
48893;PMS5003;34710;35.798;139.446;2022-07-17T02:04:43;1;1;
48893;PMS5003;34710;35.798;139.446;2022-07-17T02:07:12;2;1;
48893;PMS5003;34710;35.798;139.446;2022-07-17T02:09:41;1;1;
48893;PMS5003;34710;35.798;139.446;2022-07-17T02:12:11;3;2;
48893;PMS5003;34710;35.798;139.446;2022-07-17T02:14:40;0;0;
48893;PMS5003;34710;35.798;139.446;2022-07-17T02:17:09;3;2;
48893;PMS5003;34710;35.798;139.446;2022-07-17T02:19:38;3;2;
48893;PMS5003;34710;35.798;139.446;2022-07-17T02:22:09;2;2;
48893;PMS5003;34710;35.798;139.446;2022-07-17T02:24:39;3;3;
48893;PMS5003;34710;35.798;139.446;2022-07-17T02:27:09;4;3;
48893;PMS5003;34710;35.798;139.446;2022-07-17T02:29:38;6;4;
48893;PMS5003;34710;35.798;139.446;2022-07-17T02:32:07;8;3;
48893;PMS5003;34710;35.798;139.446;2022-07-17T02:34:36;2;1;
48893;PMS5003;34710;35.798;139.446;2022-07-17T02:37:06;2;2;
48893;PMS5003;34710;35.798;139.446;2022-07-17T02:39:35;4;2;
48893;PMS5003;34710;35.798;139.446;2022-07-17T02:42:04;5;3;
48893;PMS5003;34710;35.798;139.446;2022-07-17T02:44:33;4;3;
48893;PMS5003;34710;35.798;139.446;2022-07-17T02:47:03;3;3;
48893;PMS5003;34710;35.798;139.446;2022-07-17T02:49:32;4;4;
48893;PMS5003;34710;35.798;139.446;2022-07-17T02:52:02;7;5;
48893;PMS5003;34710;35.798;139.446;2022-07-17T02:54:32;2;2;
48893;PMS5003;34710;35.798;139.446;2022-07-17T02:57:01;5;5;
48893;PMS5003;34710;35.798;139.446;2022-07-17T02:59:30;5;5;
48893;PMS5003;34710;35.798;139.446;2022-07-17T03:02:01;4;4;
48893;PMS5003;34710;35.798;139.446;2022-07-17T03:04:31;4;2;
48893;PMS5003;34710;35.798;139.446;2022-07-17T03:07:00;4;3;
48893;PMS5003;34710;35.798;139.446;2022-07-17T03:09:30;4;4;
48893;PMS5003;34710;35.798;139.446;2022-07-17T03:12:00;6;5;
48893;PMS5003;34710;35.798;139.446;2022-07-17T03:14:29;5;5;
48893;PMS5003;34710;35.798;139.446;2022-07-17T03:16:59;2;2;
48893;PMS5003;34710;35.798;139.446;2022-07-17T03:19:27;12;2;
48893;PMS5003;34710;35.798;139.446;2022-07-17T03:21:57;3;3;
48893;PMS5003;34710;35.798;139.446;2022-07-17T03:24:26;6;5;
48893;PMS5003;34710;35.798;139.446;2022-07-17T03:26:56;4;4;
48893;PMS5003;34710;35.798;139.446;2022-07-17T03:29:25;3;3;
48893;PMS5003;34710;35.798;139.446;2022-07-17T03:31:55;3;3;
48893;PMS5003;34710;35.798;139.446;2022-07-17T03:34:24;2;2;
48893;PMS5003;34710;35.798;139.446;2022-07-17T03:36:53;3;3;
48893;PMS5003;34710;35.798;139.446;2022-07-17T03:39:22;2;2;
48893;PMS5003;34710;35.798;139.446;2022-07-17T03:41:52;7;3;
48893;PMS5003;34710;35.798;139.446;2022-07-17T03:44:22;4;4;
48893;PMS5003;34710;35.798;139.446;2022-07-17T03:46:51;3;3;
48893;PMS5003;34710;35.798;139.446;2022-07-17T03:49:20;2;2;
48893;PMS5003;34710;35.798;139.446;2022-07-17T03:51:50;5;4;
48893;PMS5003;34710;35.798;139.446;2022-07-17T03:54:19;6;5;
48893;PMS5003;34710;35.798;139.446;2022-07-17T03:56:48;4;3;
48893;PMS5003;34710;35.798;139.446;2022-07-17T03:59:18;3;3;
48893;PMS5003;34710;35.798;139.446;2022-07-17T04:01:47;3;3;
48893;PMS5003;34710;35.798;139.446;2022-07-17T04:04:17;3;1;
48893;PMS5003;34710;35.798;139.446;2022-07-17T04:06:47;3;3;
48893;PMS5003;34710;35.798;139.446;2022-07-17T04:09:16;2;2;
48893;PMS5003;34710;35.798;139.446;2022-07-17T04:11:45;2;2;
48893;PMS5003;34710;35.798;139.446;2022-07-17T04:14:15;3;2;
48893;PMS5003;34710;35.798;139.446;2022-07-17T04:16:44;3;3;
48893;PMS5003;34710;35.798;139.446;2022-07-17T04:19:13;3;3;
48893;PMS5003;34710;35.798;139.446;2022-07-17T04:21:42;5;3;
48893;PMS5003;34710;35.798;139.446;2022-07-17T04:24:12;1;1;
48893;PMS5003;34710;35.798;139.446;2022-07-17T04:26:41;3;3;
48893;PMS5003;34710;35.798;139.446;2022-07-17T04:29:10;4;3;
48893;PMS5003;34710;35.798;139.446;2022-07-17T04:31:39;4;4;
48893;PMS5003;34710;35.798;139.446;2022-07-17T04:34:08;2;1;
48893;PMS5003;34710;35.798;139.446;2022-07-17T04:36:38;3;2;
48893;PMS5003;34710;35.798;139.446;2022-07-17T04:39:07;3;3;
48893;PMS5003;34710;35.798;139.446;2022-07-17T04:41:36;5;4;
48893;PMS5003;34710;35.798;139.446;2022-07-17T04:44:06;3;2;
48893;PMS5003;34710;35.798;139.446;2022-07-17T04:46:36;9;4;
48893;PMS5003;34710;35.798;139.446;2022-07-17T04:49:06;3;2;
48893;PMS5003;34710;35.798;139.446;2022-07-17T04:51:35;3;2;
48893;PMS5003;34710;35.798;139.446;2022-07-17T04:54:04;5;4;
48893;PMS5003;34710;35.798;139.446;2022-07-17T04:56:34;3;3;
48893;PMS5003;34710;35.798;139.446;2022-07-17T04:59:03;1;1;
48893;PMS5003;34710;35.798;139.446;2022-07-17T05:01:32;4;4;
48893;PMS5003;34710;35.798;139.446;2022-07-17T05:04:02;4;2;
48893;PMS5003;34710;35.798;139.446;2022-07-17T05:06:31;5;4;
48893;PMS5003;34710;35.798;139.446;2022-07-17T05:09:00;5;4;
48893;PMS5003;34710;35.798;139.446;2022-07-17T05:11:31;4;4;
48893;PMS5003;34710;35.798;139.446;2022-07-17T05:14:00;4;3;
48893;PMS5003;34710;35.798;139.446;2022-07-17T05:16:30;5;4;
48893;PMS5003;34710;35.798;139.446;2022-07-17T05:18:59;4;4;
48893;PMS5003;34710;35.798;139.446;2022-07-17T05:21:28;5;4;
48893;PMS5003;34710;35.798;139.446;2022-07-17T05:23:57;6;5;
48893;PMS5003;34710;35.798;139.446;2022-07-17T05:26:27;4;4;
48893;PMS5003;34710;35.798;139.446;2022-07-17T05:28:56;6;3;
48893;PMS5003;34710;35.798;139.446;2022-07-17T05:31:25;5;3;
48893;PMS5003;34710;35.798;139.446;2022-07-17T05:33:54;4;3;
48893;PMS5003;34710;35.798;139.446;2022-07-17T05:36:24;6;4;
48893;PMS5003;34710;35.798;139.446;2022-07-17T05:38:53;4;4;
48893;PMS5003;34710;35.798;139.446;2022-07-17T05:41:22;5;4;
48893;PMS5003;34710;35.798;139.446;2022-07-17T05:43:51;6;4;
48893;PMS5003;34710;35.798;139.446;2022-07-17T05:46:21;9;4;
48893;PMS5003;34710;35.798;139.446;2022-07-17T05:48:50;5;4;
48893;PMS5003;34710;35.798;139.446;2022-07-17T05:51:19;3;3;
48893;PMS5003;34710;35.798;139.446;2022-07-17T05:53:48;4;4;
48893;PMS5003;34710;35.798;139.446;2022-07-17T05:56:18;3;3;
48893;PMS5003;34710;35.798;139.446;2022-07-17T05:58:47;8;4;
48893;PMS5003;34710;35.798;139.446;2022-07-17T06:01:17;6;6;
48893;PMS5003;34710;35.798;139.446;2022-07-17T06:03:46;4;4;
48893;PMS5003;34710;35.798;139.446;2022-07-17T06:06:16;7;4;
48893;PMS5003;34710;35.798;139.446;2022-07-17T06:08:45;8;6;
48893;PMS5003;34710;35.798;139.446;2022-07-17T06:11:14;5;5;
48893;PMS5003;34710;35.798;139.446;2022-07-17T06:13:43;4;4;
48893;PMS5003;34710;35.798;139.446;2022-07-17T06:16:13;5;4;
48893;PMS5003;34710;35.798;139.446;2022-07-17T06:18:43;7;5;
48893;PMS5003;34710;35.798;139.446;2022-07-17T06:21:12;5;5;
48893;PMS5003;34710;35.798;139.446;2022-07-17T06:23:41;7;4;
48893;PMS5003;34710;35.798;139.446;2022-07-17T06:26:11;6;5;
48893;PMS5003;34710;35.798;139.446;2022-07-17T06:28:40;4;4;
48893;PMS5003;34710;35.798;139.446;2022-07-17T06:31:09;7;7;
48893;PMS5003;34710;35.798;139.446;2022-07-17T06:33:38;5;3;
48893;PMS5003;34710;35.798;139.446;2022-07-17T06:36:08;9;6;
48893;PMS5003;34710;35.798;139.446;2022-07-17T06:38:37;4;4;
48893;PMS5003;34710;35.798;139.446;2022-07-17T06:41:07;10;5;
48893;PMS5003;34710;35.798;139.446;2022-07-17T06:43:36;4;4;
48893;PMS5003;34710;35.798;139.446;2022-07-17T06:46:05;7;4;
48893;PMS5003;34710;35.798;139.446;2022-07-17T06:48:34;6;6;
48893;PMS5003;34710;35.798;139.446;2022-07-17T06:51:03;7;6;
48893;PMS5003;34710;35.798;139.446;2022-07-17T06:53:33;5;5;
48893;PMS5003;34710;35.798;139.446;2022-07-17T06:56:02;8;7;
48893;PMS5003;34710;35.798;139.446;2022-07-17T06:58:31;3;3;
48893;PMS5003;34710;35.798;139.446;2022-07-17T07:01:01;6;5;
48893;PMS5003;34710;35.798;139.446;2022-07-17T07:03:30;4;4;
48893;PMS5003;34710;35.798;139.446;2022-07-17T07:06:00;7;7;
48893;PMS5003;34710;35.798;139.446;2022-07-17T07:08:29;15;5;
48893;PMS5003;34710;35.798;139.446;2022-07-17T07:11:00;7;7;
48893;PMS5003;34710;35.798;139.446;2022-07-17T07:13:29;7;7;
48893;PMS5003;34710;35.798;139.446;2022-07-17T07:15:58;6;6;
48893;PMS5003;34710;35.798;139.446;2022-07-17T07:18:28;8;6;
48893;PMS5003;34710;35.798;139.446;2022-07-17T07:20:57;9;6;
48893;PMS5003;34710;35.798;139.446;2022-07-17T07:23:26;9;7;
48893;PMS5003;34710;35.798;139.446;2022-07-17T07:25:56;7;5;
48893;PMS5003;34710;35.798;139.446;2022-07-17T07:28:26;9;8;
48893;PMS5003;34710;35.798;139.446;2022-07-17T07:30:55;10;10;
48893;PMS5003;34710;35.798;139.446;2022-07-17T07:33:24;10;9;
48893;PMS5003;34710;35.798;139.446;2022-07-17T07:35:53;6;6;
48893;PMS5003;34710;35.798;139.446;2022-07-17T07:38:23;9;9;
48893;PMS5003;34710;35.798;139.446;2022-07-17T07:40:53;9;7;
48893;PMS5003;34710;35.798;139.446;2022-07-17T07:43:23;9;7;
48893;PMS5003;34710;35.798;139.446;2022-07-17T07:45:53;8;7;
48893;PMS5003;34710;35.798;139.446;2022-07-17T07:48:21;10;9;
48893;PMS5003;34710;35.798;139.446;2022-07-17T07:50:51;9;8;
48893;PMS5003;34710;35.798;139.446;2022-07-17T07:53:20;8;5;
48893;PMS5003;34710;35.798;139.446;2022-07-17T07:55:49;6;6;
48893;PMS5003;34710;35.798;139.446;2022-07-17T07:58:18;10;8;
48893;PMS5003;34710;35.798;139.446;2022-07-17T08:00:48;12;8;
48893;PMS5003;34710;35.798;139.446;2022-07-17T08:03:18;14;8;
48893;PMS5003;34710;35.798;139.446;2022-07-17T08:05:47;13;9;
48893;PMS5003;34710;35.798;139.446;2022-07-17T08:08:17;10;9;
48893;PMS5003;34710;35.798;139.446;2022-07-17T08:10:46;13;8;
48893;PMS5003;34710;35.798;139.446;2022-07-17T08:13:15;10;10;
48893;PMS5003;34710;35.798;139.446;2022-07-17T08:15:45;10;9;
48893;PMS5003;34710;35.798;139.446;2022-07-17T08:18:14;16;8;
48893;PMS5003;34710;35.798;139.446;2022-07-17T08:20:43;7;7;
48893;PMS5003;34710;35.798;139.446;2022-07-17T08:23:12;12;9;
48893;PMS5003;34710;35.798;139.446;2022-07-17T08:25:41;11;8;
48893;PMS5003;34710;35.798;139.446;2022-07-17T08:28:11;12;9;
48893;PMS5003;34710;35.798;139.446;2022-07-17T08:30:40;7;6;
48893;PMS5003;34710;35.798;139.446;2022-07-17T08:33:09;9;8;
48893;PMS5003;34710;35.798;139.446;2022-07-17T08:35:38;14;10;
48893;PMS5003;34710;35.798;139.446;2022-07-17T08:38:07;11;10;
48893;PMS5003;34710;35.798;139.446;2022-07-17T08:40:37;11;10;
48893;PMS5003;34710;35.798;139.446;2022-07-17T08:43:07;14;8;
48893;PMS5003;34710;35.798;139.446;2022-07-17T08:45:39;11;11;
48893;PMS5003;34710;35.798;139.446;2022-07-17T08:48:09;9;8;
48893;PMS5003;34710;35.798;139.446;2022-07-17T08:50:41;9;8;
48893;PMS5003;34710;35.798;139.446;2022-07-17T08:53:11;12;10;
48893;PMS5003;34710;35.798;139.446;2022-07-17T08:55:40;11;10;
48893;PMS5003;34710;35.798;139.446;2022-07-17T08:58:13;14;10;
48893;PMS5003;34710;35.798;139.446;2022-07-17T09:00:43;13;10;
48893;PMS5003;34710;35.798;139.446;2022-07-17T09:03:13;11;10;
48893;PMS5003;34710;35.798;139.446;2022-07-17T09:05:43;19;11;
48893;PMS5003;34710;35.798;139.446;2022-07-17T09:08:16;9;8;
48893;PMS5003;34710;35.798;139.446;2022-07-17T09:10:47;12;9;
48893;PMS5003;34710;35.798;139.446;2022-07-17T09:13:18;13;10;
48893;PMS5003;34710;35.798;139.446;2022-07-17T09:15:50;17;11;
48893;PMS5003;34710;35.798;139.446;2022-07-17T09:18:21;11;9;
48893;PMS5003;34710;35.798;139.446;2022-07-17T09:20:51;11;10;
48893;PMS5003;34710;35.798;139.446;2022-07-17T09:23:24;13;11;
48893;PMS5003;34710;35.798;139.446;2022-07-17T09:25:55;16;12;
48893;PMS5003;34710;35.798;139.446;2022-07-17T09:28:24;15;12;
48893;PMS5003;34710;35.798;139.446;2022-07-17T09:30:54;14;14;
48893;PMS5003;34710;35.798;139.446;2022-07-17T09:33:25;13;11;
48893;PMS5003;34710;35.798;139.446;2022-07-17T09:35:55;14;11;
48893;PMS5003;34710;35.798;139.446;2022-07-17T09:38:34;14;13;
48893;PMS5003;34710;35.798;139.446;2022-07-17T09:41:06;10;10;
48893;PMS5003;34710;35.798;139.446;2022-07-17T09:43:38;15;12;
48893;PMS5003;34710;35.798;139.446;2022-07-17T09:46:08;12;12;
48893;PMS5003;34710;35.798;139.446;2022-07-17T09:48:40;15;13;
48893;PMS5003;34710;35.798;139.446;2022-07-17T09:51:12;12;12;
48893;PMS5003;34710;35.798;139.446;2022-07-17T09:53:48;15;12;
48893;PMS5003;34710;35.798;139.446;2022-07-17T09:56:20;14;12;
48893;PMS5003;34710;35.798;139.446;2022-07-17T09:58:52;12;10;
48893;PMS5003;34710;35.798;139.446;2022-07-17T10:01:22;16;12;
48893;PMS5003;34710;35.798;139.446;2022-07-17T10:03:51;13;12;
48893;PMS5003;34710;35.798;139.446;2022-07-17T10:06:21;12;12;
48893;PMS5003;34710;35.798;139.446;2022-07-17T10:08:52;17;13;
48893;PMS5003;34710;35.798;139.446;2022-07-17T10:11:22;19;13;
48893;PMS5003;34710;35.798;139.446;2022-07-17T10:13:53;17;13;
48893;PMS5003;34710;35.798;139.446;2022-07-17T10:16:25;16;12;
48893;PMS5003;34710;35.798;139.446;2022-07-17T10:18:56;10;10;
48893;PMS5003;34710;35.798;139.446;2022-07-17T10:21:27;17;15;
48893;PMS5003;34710;35.798;139.446;2022-07-17T10:24:13;16;16;
48893;PMS5003;34710;35.798;139.446;2022-07-17T10:26:42;30;17;
48893;PMS5003;34710;35.798;139.446;2022-07-17T10:29:25;19;14;
48893;PMS5003;34710;35.798;139.446;2022-07-17T10:31:56;16;15;
48893;PMS5003;34710;35.798;139.446;2022-07-17T10:34:43;21;16;
48893;PMS5003;34710;35.798;139.446;2022-07-17T10:37:15;22;17;
48893;PMS5003;34710;35.798;139.446;2022-07-17T10:40:04;19;16;
48893;PMS5003;34710;35.798;139.446;2022-07-17T10:42:54;18;18;
48893;PMS5003;34710;35.798;139.446;2022-07-17T10:45:25;21;18;
48893;PMS5003;34710;35.798;139.446;2022-07-17T10:47:58;31;28;
48893;PMS5003;34710;35.798;139.446;2022-07-17T10:50:29;18;17;
48893;PMS5003;34710;35.798;139.446;2022-07-17T10:53:04;20;15;
48893;PMS5003;34710;35.798;139.446;2022-07-17T10:55:36;21;16;
48893;PMS5003;34710;35.798;139.446;2022-07-17T10:58:15;20;15;
48893;PMS5003;34710;35.798;139.446;2022-07-17T11:00:57;25;16;
48893;PMS5003;34710;35.798;139.446;2022-07-17T11:03:31;22;18;
48893;PMS5003;34710;35.798;139.446;2022-07-17T11:06:07;20;18;
48893;PMS5003;34710;35.798;139.446;2022-07-17T11:08:40;16;16;
48893;PMS5003;34710;35.798;139.446;2022-07-17T11:11:10;12;12;
48893;PMS5003;34710;35.798;139.446;2022-07-17T11:13:40;11;11;
48893;PMS5003;34710;35.798;139.446;2022-07-17T11:16:10;16;13;
48893;PMS5003;34710;35.798;139.446;2022-07-17T11:18:46;16;14;
48893;PMS5003;34710;35.798;139.446;2022-07-17T11:21:16;16;14;
48893;PMS5003;34710;35.798;139.446;2022-07-17T11:23:50;14;14;
48893;PMS5003;34710;35.798;139.446;2022-07-17T11:26:21;11;11;
48893;PMS5003;34710;35.798;139.446;2022-07-17T11:28:50;10;10;
48893;PMS5003;34710;35.798;139.446;2022-07-17T11:31:20;10;7;
48893;PMS5003;34710;35.798;139.446;2022-07-17T11:33:51;4;4;
48893;PMS5003;34710;35.798;139.446;2022-07-17T11:36:23;4;4;
48893;PMS5003;34710;35.798;139.446;2022-07-17T11:38:56;3;3;
48893;PMS5003;34710;35.798;139.446;2022-07-17T11:41:34;3;3;
48893;PMS5003;34710;35.798;139.446;2022-07-17T11:44:06;4;4;
48893;PMS5003;34710;35.798;139.446;2022-07-17T11:46:37;6;6;
48893;PMS5003;34710;35.798;139.446;2022-07-17T11:49:08;1;1;
48893;PMS5003;34710;35.798;139.446;2022-07-17T11:51:38;5;4;
48893;PMS5003;34710;35.798;139.446;2022-07-17T11:54:09;2;2;
48893;PMS5003;34710;35.798;139.446;2022-07-17T11:56:40;3;2;
48893;PMS5003;34710;35.798;139.446;2022-07-17T11:59:10;5;3;
48893;PMS5003;34710;35.798;139.446;2022-07-17T12:01:41;5;4;
48893;PMS5003;34710;35.798;139.446;2022-07-17T12:04:13;5;3;
48893;PMS5003;34710;35.798;139.446;2022-07-17T12:06:44;5;5;
48893;PMS5003;34710;35.798;139.446;2022-07-17T12:09:14;7;5;
48893;PMS5003;34710;35.798;139.446;2022-07-17T12:11:53;5;5;
48893;PMS5003;34710;35.798;139.446;2022-07-17T12:14:22;8;8;
48893;PMS5003;34710;35.798;139.446;2022-07-17T12:16:51;3;3;
48893;PMS5003;34710;35.798;139.446;2022-07-17T12:19:23;6;4;
48893;PMS5003;34710;35.798;139.446;2022-07-17T12:21:54;4;4;
48893;PMS5003;34710;35.798;139.446;2022-07-17T12:24:27;2;2;
48893;PMS5003;34710;35.798;139.446;2022-07-17T12:26:58;1;1;
48893;PMS5003;34710;35.798;139.446;2022-07-17T12:29:30;1;1;
48893;PMS5003;34710;35.798;139.446;2022-07-17T12:32:02;4;2;
48893;PMS5003;34710;35.798;139.446;2022-07-17T12:34:32;5;4;
48893;PMS5003;34710;35.798;139.446;2022-07-17T12:37:02;6;5;
48893;PMS5003;34710;35.798;139.446;2022-07-17T12:39:32;3;3;
48893;PMS5003;34710;35.798;139.446;2022-07-17T12:42:01;3;3;
48893;PMS5003;34710;35.798;139.446;2022-07-17T12:44:31;4;3;
48893;PMS5003;34710;35.798;139.446;2022-07-17T12:47:02;5;4;
48893;PMS5003;34710;35.798;139.446;2022-07-17T12:49:32;3;3;
48893;PMS5003;34710;35.798;139.446;2022-07-17T12:52:01;1;1;
48893;PMS5003;34710;35.798;139.446;2022-07-17T12:54:31;2;1;
48893;PMS5003;34710;35.798;139.446;2022-07-17T12:57:01;2;2;
48893;PMS5003;34710;35.798;139.446;2022-07-17T12:59:30;2;2;
48893;PMS5003;34710;35.798;139.446;2022-07-17T13:02:00;4;4;
48893;PMS5003;34710;35.798;139.446;2022-07-17T13:04:31;3;2;
48893;PMS5003;34710;35.798;139.446;2022-07-17T13:07:00;2;2;
48893;PMS5003;34710;35.798;139.446;2022-07-17T13:09:29;3;3;
48893;PMS5003;34710;35.798;139.446;2022-07-17T13:11:59;3;3;
48893;PMS5003;34710;35.798;139.446;2022-07-17T13:14:27;3;3;
48893;PMS5003;34710;35.798;139.446;2022-07-17T13:16:57;6;2;
48893;PMS5003;34710;35.798;139.446;2022-07-17T13:19:26;2;2;
48893;PMS5003;34710;35.798;139.446;2022-07-17T13:21:55;3;3;
48893;PMS5003;34710;35.798;139.446;2022-07-17T13:24:25;2;2;
48893;PMS5003;34710;35.798;139.446;2022-07-17T13:26:54;6;3;
48893;PMS5003;34710;35.798;139.446;2022-07-17T13:29:23;3;3;
48893;PMS5003;34710;35.798;139.446;2022-07-17T13:31:53;3;3;
48893;PMS5003;34710;35.798;139.446;2022-07-17T13:34:23;2;2;
48893;PMS5003;34710;35.798;139.446;2022-07-17T13:36:52;2;2;
48893;PMS5003;34710;35.798;139.446;2022-07-17T13:39:21;1;1;
48893;PMS5003;34710;35.798;139.446;2022-07-17T13:41:51;4;3;
48893;PMS5003;34710;35.798;139.446;2022-07-17T13:44:20;1;1;
48893;PMS5003;34710;35.798;139.446;2022-07-17T13:46:50;3;3;
48893;PMS5003;34710;35.798;139.446;2022-07-17T13:49:19;3;3;
48893;PMS5003;34710;35.798;139.446;2022-07-17T13:51:49;3;2;
48893;PMS5003;34710;35.798;139.446;2022-07-17T13:54:18;3;3;
48893;PMS5003;34710;35.798;139.446;2022-07-17T13:56:47;3;3;
48893;PMS5003;34710;35.798;139.446;2022-07-17T13:59:16;3;3;
48893;PMS5003;34710;35.798;139.446;2022-07-17T14:01:46;3;2;
48893;PMS5003;34710;35.798;139.446;2022-07-17T14:04:16;4;4;
48893;PMS5003;34710;35.798;139.446;2022-07-17T14:06:45;5;2;
48893;PMS5003;34710;35.798;139.446;2022-07-17T14:09:14;3;3;
48893;PMS5003;34710;35.798;139.446;2022-07-17T14:11:44;2;2;
48893;PMS5003;34710;35.798;139.446;2022-07-17T14:14:13;3;3;
48893;PMS5003;34710;35.798;139.446;2022-07-17T14:16:42;4;4;
48893;PMS5003;34710;35.798;139.446;2022-07-17T14:19:12;6;4;
48893;PMS5003;34710;35.798;139.446;2022-07-17T14:21:41;2;2;
48893;PMS5003;34710;35.798;139.446;2022-07-17T14:24:10;4;3;
48893;PMS5003;34710;35.798;139.446;2022-07-17T14:26:39;2;2;
48893;PMS5003;34710;35.798;139.446;2022-07-17T14:29:09;10;4;
48893;PMS5003;34710;35.798;139.446;2022-07-17T14:31:38;6;2;
48893;PMS5003;34710;35.798;139.446;2022-07-17T14:34:07;3;3;
48893;PMS5003;34710;35.798;139.446;2022-07-17T14:36:37;4;4;
48893;PMS5003;34710;35.798;139.446;2022-07-17T14:39:07;6;4;
48893;PMS5003;34710;35.798;139.446;2022-07-17T14:41:36;4;3;
48893;PMS5003;34710;35.798;139.446;2022-07-17T14:44:05;2;2;
48893;PMS5003;34710;35.798;139.446;2022-07-17T14:46:35;3;3;
48893;PMS5003;34710;35.798;139.446;2022-07-17T14:49:04;2;2;
48893;PMS5003;34710;35.798;139.446;2022-07-17T14:51:34;4;4;
48893;PMS5003;34710;35.798;139.446;2022-07-17T14:54:03;5;4;
48893;PMS5003;34710;35.798;139.446;2022-07-17T14:56:33;4;4;
48893;PMS5003;34710;35.798;139.446;2022-07-17T14:59:02;3;3;
48893;PMS5003;34710;35.798;139.446;2022-07-17T15:01:31;4;3;
48893;PMS5003;34710;35.798;139.446;2022-07-17T15:04:01;2;2;
48893;PMS5003;34710;35.798;139.446;2022-07-17T15:06:30;5;4;
48893;PMS5003;34710;35.798;139.446;2022-07-17T15:08:59;6;3;
48893;PMS5003;34710;35.798;139.446;2022-07-17T15:11:28;3;3;
48893;PMS5003;34710;35.798;139.446;2022-07-17T15:13:58;2;2;
48893;PMS5003;34710;35.798;139.446;2022-07-17T15:16:27;4;4;
48893;PMS5003;34710;35.798;139.446;2022-07-17T15:18:57;3;3;
48893;PMS5003;34710;35.798;139.446;2022-07-17T15:21:26;7;5;
48893;PMS5003;34710;35.798;139.446;2022-07-17T15:23:55;3;3;
48893;PMS5003;34710;35.798;139.446;2022-07-17T15:26:25;5;5;
48893;PMS5003;34710;35.798;139.446;2022-07-17T15:28:54;5;4;
48893;PMS5003;34710;35.798;139.446;2022-07-17T15:31:25;6;4;
48893;PMS5003;34710;35.798;139.446;2022-07-17T15:33:54;6;4;
48893;PMS5003;34710;35.798;139.446;2022-07-17T15:36:23;6;5;
48893;PMS5003;34710;35.798;139.446;2022-07-17T15:38:53;4;4;
48893;PMS5003;34710;35.798;139.446;2022-07-17T15:41:23;4;4;
48893;PMS5003;34710;35.798;139.446;2022-07-17T15:43:53;4;4;
48893;PMS5003;34710;35.798;139.446;2022-07-17T15:46:22;5;4;
48893;PMS5003;34710;35.798;139.446;2022-07-17T15:48:52;5;4;
48893;PMS5003;34710;35.798;139.446;2022-07-17T15:51:21;6;6;
48893;PMS5003;34710;35.798;139.446;2022-07-17T15:53:50;4;3;
48893;PMS5003;34710;35.798;139.446;2022-07-17T15:56:20;6;4;
48893;PMS5003;34710;35.798;139.446;2022-07-17T15:58:49;6;4;
48893;PMS5003;34710;35.798;139.446;2022-07-17T16:01:18;3;3;
48893;PMS5003;34710;35.798;139.446;2022-07-17T16:03:48;3;3;
48893;PMS5003;34710;35.798;139.446;2022-07-17T16:06:17;4;3;
48893;PMS5003;34710;35.798;139.446;2022-07-17T16:08:48;4;4;
48893;PMS5003;34710;35.798;139.446;2022-07-17T16:11:17;7;5;
48893;PMS5003;34710;35.798;139.446;2022-07-17T16:13:46;6;5;
48893;PMS5003;34710;35.798;139.446;2022-07-17T16:16:15;4;4;
48893;PMS5003;34710;35.798;139.446;2022-07-17T16:18:44;4;4;
48893;PMS5003;34710;35.798;139.446;2022-07-17T16:21:14;3;3;
48893;PMS5003;34710;35.798;139.446;2022-07-17T16:23:43;7;4;
48893;PMS5003;34710;35.798;139.446;2022-07-17T16:26:12;8;4;
48893;PMS5003;34710;35.798;139.446;2022-07-17T16:28:42;7;5;